createdAt,value
2024-05-09T00:01:54.474Z,99.90
2024-05-09T00:04:24.493Z,99.90
2024-05-09T00:06:54.322Z,99.90
2024-05-09T00:09:26.835Z,99.90
2024-05-09T00:11:56.881Z,99.90
2024-05-09T00:14:27.095Z,99.90
2024-05-09T00:16:57.492Z,99.90
2024-05-09T00:19:27.724Z,99.90
2024-05-09T00:21:57.579Z,99.90
2024-05-09T00:24:29.991Z,99.90
2024-05-09T00:27:00.756Z,99.90
2024-05-09T00:29:30.658Z,99.90
2024-05-09T00:32:00.714Z,99.90
2024-05-09T00:34:30.770Z,99.90
2024-05-09T00:37:00.666Z,99.90
2024-05-09T00:39:35.047Z,99.90
2024-05-09T00:42:04.845Z,99.90
2024-05-09T00:44:34.773Z,99.90
2024-05-09T00:47:04.801Z,99.90
2024-05-09T00:49:36.015Z,99.90
2024-05-09T00:52:06.490Z,99.90
2024-05-09T00:54:39.600Z,99.90
2024-05-09T00:57:09.615Z,99.90
2024-05-09T00:59:39.605Z,99.90
2024-05-09T01:02:09.924Z,99.90
2024-05-09T01:04:40.058Z,99.90
2024-05-09T01:07:10.517Z,99.90
2024-05-09T01:09:42.921Z,99.90
2024-05-09T01:12:13.118Z,99.90
2024-05-09T01:14:43.379Z,99.90
2024-05-09T01:17:13.563Z,99.90
2024-05-09T01:19:43.532Z,99.90
2024-05-09T01:22:13.396Z,99.90
2024-05-09T01:24:48.405Z,99.90
2024-05-09T01:27:18.215Z,99.90
2024-05-09T01:29:48.062Z,99.90
2024-05-09T01:32:17.978Z,99.90
2024-05-09T01:34:47.873Z,99.90
2024-05-09T01:37:17.687Z,99.90
2024-05-09T01:39:50.226Z,99.90
2024-05-09T01:42:20.098Z,99.90
2024-05-09T01:44:50.022Z,99.90
2024-05-09T01:47:20.042Z,99.90
2024-05-09T01:49:49.966Z,99.90
2024-05-09T01:52:19.948Z,99.90
2024-05-09T01:54:52.457Z,99.90
2024-05-09T01:57:22.432Z,99.90
2024-05-09T01:59:52.295Z,99.90
2024-05-09T02:02:22.326Z,99.90
2024-05-09T02:04:52.489Z,99.90
2024-05-09T02:07:22.485Z,99.90
2024-05-09T02:09:57.233Z,99.90
2024-05-09T02:12:27.127Z,99.90
2024-05-09T02:14:56.930Z,99.90
2024-05-09T02:17:26.936Z,99.90
2024-05-09T02:19:56.794Z,99.90
2024-05-09T02:22:26.614Z,99.90
2024-05-09T02:24:59.060Z,99.90
2024-05-09T02:27:28.881Z,99.90
2024-05-09T02:29:58.651Z,99.90
2024-05-09T02:32:28.825Z,99.90
2024-05-09T02:34:59.033Z,99.90
2024-05-09T02:37:26.267Z,99.90
2024-05-09T02:39:58.865Z,99.90
2024-05-09T02:42:26.095Z,99.90
2024-05-09T02:44:55.945Z,99.90
2024-05-09T02:47:23.371Z,99.90
2024-05-09T02:49:53.362Z,99.90
2024-05-09T02:52:20.647Z,99.90
2024-05-09T02:54:50.488Z,99.90
2024-05-09T02:57:21.789Z,99.90
2024-05-09T02:59:52.008Z,99.90
2024-05-09T03:02:19.320Z,99.90
2024-05-09T03:04:49.341Z,99.90
2024-05-09T03:07:19.061Z,99.90
2024-05-09T03:09:50.250Z,99.90
2024-05-09T03:12:20.240Z,99.90
2024-05-09T03:14:52.886Z,99.90
2024-05-09T03:17:20.249Z,99.90
2024-05-09T03:19:50.194Z,99.90
2024-05-09T03:22:17.769Z,99.90
2024-05-09T03:24:47.613Z,99.90
2024-05-09T03:27:14.794Z,99.90
2024-05-09T03:29:47.377Z,99.90
2024-05-09T03:32:14.747Z,99.90
2024-05-09T03:34:44.648Z,99.90
2024-05-09T03:37:16.117Z,99.90
2024-05-09T03:39:45.952Z,99.90
2024-05-09T03:42:15.797Z,99.90
2024-05-09T03:44:45.784Z,99.90
2024-05-09T03:47:16.032Z,99.90
2024-05-09T03:49:43.398Z,99.90
2024-05-09T03:52:13.376Z,99.90
2024-05-09T03:54:46.614Z,99.90
2024-05-09T03:57:16.500Z,99.90
2024-05-09T03:59:46.382Z,99.90
2024-05-09T04:02:17.421Z,99.90
2024-05-09T04:04:45.131Z,99.90
2024-05-09T04:07:15.008Z,99.90
2024-05-09T04:09:42.262Z,99.90
2024-05-09T04:12:12.270Z,99.90
2024-05-09T04:14:39.804Z,99.90
2024-05-09T04:17:12.497Z,99.90
2024-05-09T04:19:39.828Z,99.90
2024-05-09T04:22:09.981Z,99.90
2024-05-09T04:24:37.204Z,99.90
2024-05-09T04:27:07.467Z,99.90
2024-05-09T04:29:37.544Z,99.90
2024-05-09T04:32:07.896Z,99.90
2024-05-09T04:34:38.162Z,99.90
2024-05-09T04:37:08.119Z,99.90
2024-05-09T04:39:35.304Z,99.90
2024-05-09T04:42:05.104Z,99.90
2024-05-09T04:44:32.456Z,99.90
2024-05-09T04:47:02.383Z,99.90
2024-05-09T04:49:29.807Z,99.90
2024-05-09T04:52:02.370Z,99.90
2024-05-09T04:54:35.863Z,99.90
2024-05-09T04:57:06.984Z,99.90
2024-05-09T04:59:34.522Z,99.90
2024-05-09T05:02:04.651Z,99.90
2024-05-09T05:04:32.572Z,99.90
2024-05-09T05:07:05.132Z,99.90
2024-05-09T05:09:32.395Z,99.90
2024-05-09T05:12:05.656Z,99.90
2024-05-09T05:14:33.054Z,99.90
2024-05-09T05:17:05.385Z,99.90
2024-05-09T05:19:32.804Z,99.90
2024-05-09T05:22:05.666Z,99.90
2024-05-09T05:24:33.064Z,99.90
2024-05-09T05:27:03.020Z,99.90
2024-05-09T05:29:30.333Z,99.90
2024-05-09T05:32:00.406Z,99.90
2024-05-09T05:34:27.773Z,99.90
2024-05-09T05:36:57.868Z,99.90
2024-05-09T05:39:27.799Z,99.90
2024-05-09T05:41:57.648Z,99.90
2024-05-09T05:44:24.967Z,99.90
2024-05-09T05:46:54.813Z,99.90
2024-05-09T05:49:22.256Z,99.90
2024-05-09T05:51:52.403Z,99.90
2024-05-09T05:54:22.794Z,99.90
2024-05-09T05:56:55.629Z,99.90
2024-05-09T05:59:24.068Z,99.90
2024-05-09T06:01:54.124Z,99.90
2024-05-09T06:04:21.520Z,99.90
2024-05-09T06:06:52.423Z,99.90
2024-05-09T06:09:19.793Z,99.90
2024-05-09T06:11:49.894Z,99.90
2024-05-09T06:14:19.903Z,99.90
2024-05-09T06:16:50.254Z,99.90
2024-05-09T06:19:18.637Z,99.00
2024-05-09T06:21:48.609Z,93.30
2024-05-09T06:24:15.986Z,90.80
2024-05-09T06:26:46.545Z,86.80
2024-05-09T06:29:14.181Z,78.60
2024-05-09T06:31:47.192Z,73.40
2024-05-09T06:34:18.707Z,68.00
2024-05-09T06:36:48.666Z,62.80
2024-05-09T06:39:16.000Z,58.20
2024-05-09T06:41:45.767Z,56.60
2024-05-09T06:44:13.193Z,56.10
2024-05-09T06:46:43.183Z,54.30
2024-05-09T06:49:13.741Z,55.70
2024-05-09T06:51:45.365Z,55.80
2024-05-09T06:54:12.766Z,55.60
2024-05-09T06:56:42.762Z,57.50
2024-05-09T06:59:10.237Z,59.50
2024-05-09T07:01:40.099Z,60.10
2024-05-09T07:04:07.530Z,60.70
2024-05-09T07:06:40.276Z,61.30
2024-05-09T07:09:07.500Z,58.70
2024-05-09T07:11:38.121Z,56.40
2024-05-09T07:14:05.437Z,55.00
2024-05-09T07:16:35.751Z,55.00
2024-05-09T07:19:03.197Z,53.00
2024-05-09T07:21:34.047Z,51.40
2024-05-09T07:24:04.357Z,51.90
2024-05-09T07:26:34.389Z,52.00
2024-05-09T07:29:01.804Z,50.40
2024-05-09T07:31:32.074Z,51.10
2024-05-09T07:34:00.664Z,50.50
2024-05-09T07:36:30.670Z,51.10
2024-05-09T07:38:57.879Z,51.50
2024-05-09T07:41:30.837Z,51.10
2024-05-09T07:43:58.988Z,51.00
2024-05-09T07:47:36.868Z,50.40
2024-05-09T07:53:20.399Z,50.50
2024-05-09T07:54:42.092Z,50.40
2024-05-09T07:57:12.418Z,49.50
2024-05-09T07:59:42.390Z,51.40
2024-05-09T08:02:09.795Z,51.80
2024-05-09T08:04:40.082Z,51.00
2024-05-09T08:07:07.728Z,49.70
2024-05-09T08:09:39.748Z,49.00
2024-05-09T08:12:09.438Z,50.20
2024-05-09T08:14:42.171Z,50.70
2024-05-09T08:17:09.483Z,50.70
2024-05-09T08:19:40.877Z,50.00
2024-05-09T08:22:09.333Z,49.20
2024-05-09T08:24:39.405Z,49.40
2024-05-09T08:27:06.708Z,49.00
2024-05-09T08:29:37.537Z,49.60
2024-05-09T08:32:12.310Z,49.10
2024-05-09T08:34:42.589Z,49.20
2024-05-09T08:37:15.586Z,49.90
2024-05-09T08:39:51.260Z,50.30
2024-05-09T08:42:18.720Z,50.20
2024-05-09T08:44:51.398Z,49.50
2024-05-09T08:47:21.405Z,48.90
2024-05-09T08:49:58.277Z,48.20
2024-05-09T08:52:25.635Z,48.10
2024-05-09T08:54:56.150Z,48.10
2024-05-09T08:57:25.314Z,48.00
2024-05-09T08:59:56.794Z,49.10
2024-05-09T09:02:30.726Z,49.30
2024-05-09T09:05:06.165Z,48.60
2024-05-09T09:07:33.851Z,49.10
2024-05-09T09:10:08.553Z,49.50
2024-05-09T09:12:36.111Z,49.40
2024-05-09T09:15:06.599Z,48.50
2024-05-09T09:17:36.683Z,47.60
2024-05-09T09:20:11.380Z,47.20
2024-05-09T09:22:41.582Z,47.20
2024-05-09T09:25:12.138Z,46.60
2024-05-09T09:27:40.160Z,45.60
2024-05-09T09:30:22.964Z,46.50
2024-05-09T09:33:00.722Z,46.60
2024-05-09T09:35:38.521Z,46.40
2024-05-09T09:38:07.601Z,45.60
2024-05-09T09:40:42.809Z,44.90
2024-05-09T09:43:18.775Z,45.10
2024-05-09T09:45:53.847Z,43.40
2024-05-09T09:48:26.108Z,44.60
2024-05-09T09:51:00.062Z,45.40
2024-05-09T09:53:28.825Z,45.50
2024-05-09T09:55:59.350Z,44.70
2024-05-09T09:58:29.590Z,44.20
2024-05-09T10:00:59.773Z,43.80
2024-05-09T10:03:29.899Z,43.00
2024-05-09T10:06:01.109Z,42.80
2024-05-09T10:08:28.889Z,45.00
2024-05-09T10:10:58.996Z,46.70
2024-05-09T10:13:34.200Z,46.70
2024-05-09T10:16:11.289Z,46.90
2024-05-09T10:18:43.662Z,47.10
2024-05-09T10:21:20.440Z,47.30
2024-05-09T10:23:58.539Z,45.40
2024-05-09T10:26:35.716Z,46.10
2024-05-09T10:29:17.541Z,45.50
2024-05-09T10:31:48.376Z,46.80
2024-05-09T10:34:22.718Z,46.00
2024-05-09T10:37:05.036Z,46.20
2024-05-09T10:39:42.992Z,45.00
2024-05-09T10:42:13.083Z,45.10
2024-05-09T10:44:40.238Z,45.20
2024-05-09T10:47:10.163Z,45.70
2024-05-09T10:49:42.122Z,46.10
2024-05-09T10:52:12.041Z,45.50
2024-05-09T10:54:40.054Z,45.60
2024-05-09T10:57:21.782Z,43.90
2024-05-09T11:00:00.127Z,44.60
2024-05-09T11:02:31.697Z,44.20
2024-05-09T11:05:02.347Z,45.00
2024-05-09T11:07:33.435Z,45.90
2024-05-09T11:10:02.091Z,45.60
2024-05-09T11:12:32.926Z,45.90
2024-05-09T11:15:00.636Z,46.90
2024-05-09T11:17:30.597Z,49.60
2024-05-09T11:20:00.668Z,49.50
2024-05-09T11:22:34.951Z,49.00
2024-05-09T11:25:03.731Z,48.10
2024-05-09T11:27:34.898Z,46.70
2024-05-09T11:30:02.384Z,48.00
2024-05-09T11:32:33.689Z,49.30
2024-05-09T11:35:04.484Z,49.80
2024-05-09T11:37:37.291Z,48.70
2024-05-09T11:40:11.420Z,49.30
2024-05-09T11:42:43.482Z,49.20
2024-05-09T11:45:11.615Z,47.50
2024-05-09T11:47:42.157Z,48.70
2024-05-09T11:50:19.542Z,49.30
2024-05-09T11:52:56.974Z,49.60
2024-05-09T11:55:27.787Z,51.30
2024-05-09T11:57:58.648Z,51.10
2024-05-09T12:00:33.977Z,50.90
2024-05-09T12:03:07.621Z,51.90
2024-05-09T12:05:37.582Z,51.70
2024-05-09T12:08:08.194Z,51.90
2024-05-09T12:10:36.747Z,51.40
2024-05-09T12:13:08.086Z,52.10
2024-05-09T12:15:37.835Z,53.00
2024-05-09T12:18:09.456Z,53.80
2024-05-09T12:20:40.402Z,55.30
2024-05-09T12:23:11.300Z,55.20
2024-05-09T12:25:40.216Z,56.00
2024-05-09T12:28:11.897Z,55.40
2024-05-09T12:30:40.769Z,55.40
2024-05-09T12:33:14.186Z,56.50
2024-05-09T12:35:46.663Z,56.00
2024-05-09T12:38:18.148Z,56.10
2024-05-09T12:40:45.876Z,54.80
2024-05-09T12:43:16.107Z,55.50
2024-05-09T12:45:43.535Z,55.70
2024-05-09T12:48:14.764Z,55.20
2024-05-09T12:50:45.646Z,54.10
2024-05-09T12:53:15.641Z,54.60
2024-05-09T12:55:48.984Z,55.30
2024-05-09T12:58:26.802Z,55.40
2024-05-09T13:00:55.165Z,55.10
2024-05-09T13:03:25.304Z,55.60
2024-05-09T13:05:55.415Z,55.40
2024-05-09T13:08:27.723Z,55.60
2024-05-09T13:10:55.385Z,54.80
2024-05-09T13:13:25.435Z,54.80
2024-05-09T13:15:52.693Z,54.90
2024-05-09T13:18:22.629Z,55.40
2024-05-09T13:20:49.867Z,56.00
2024-05-09T13:23:22.448Z,54.30
2024-05-09T13:25:52.560Z,55.20
2024-05-09T13:28:22.912Z,53.70
2024-05-09T13:30:50.288Z,53.60
2024-05-09T13:33:20.447Z,53.00
2024-05-09T13:35:50.546Z,52.30
2024-05-09T13:38:24.054Z,51.30
2024-05-09T13:40:52.862Z,52.80
2024-05-09T13:43:24.345Z,53.30
2024-05-09T13:45:52.278Z,53.80
2024-05-09T13:48:22.428Z,53.70
2024-05-09T13:50:49.703Z,53.10
2024-05-09T13:53:19.793Z,53.20
2024-05-09T13:55:49.841Z,53.90
2024-05-09T13:58:19.889Z,54.50
2024-05-09T14:00:49.043Z,55.10
2024-05-09T14:03:21.129Z,54.30
2024-05-09T14:05:50.873Z,53.20
2024-05-09T14:08:22.572Z,53.30
2024-05-09T14:10:53.752Z,53.90
2024-05-09T14:13:23.975Z,54.20
2024-05-09T14:15:51.494Z,54.50
2024-05-09T14:18:21.828Z,54.80
2024-05-09T14:20:49.131Z,54.70
2024-05-09T14:23:20.549Z,55.10
2024-05-09T14:25:51.316Z,54.80
2024-05-09T14:28:26.428Z,54.10
2024-05-09T14:30:56.486Z,54.80
2024-05-09T14:33:27.644Z,54.60
2024-05-09T14:35:55.128Z,54.80
2024-05-09T14:38:25.634Z,55.20
2024-05-09T14:40:53.126Z,55.40
2024-05-09T14:43:25.944Z,55.90
2024-05-09T14:45:53.580Z,56.00
2024-05-09T14:48:23.769Z,56.60
2024-05-09T14:50:51.018Z,56.40
2024-05-09T14:53:20.860Z,56.20
2024-05-09T14:55:49.832Z,56.20
2024-05-09T14:58:20.305Z,55.70
2024-05-09T15:00:51.521Z,55.60
2024-05-09T15:03:22.787Z,54.80
2024-05-09T15:05:51.491Z,54.70
2024-05-09T15:08:22.374Z,55.10
2024-05-09T15:10:50.566Z,55.50
2024-05-09T15:13:23.172Z,55.90
2024-05-09T15:15:53.391Z,56.60
2024-05-09T15:18:23.700Z,56.40
2024-05-09T15:20:52.255Z,57.90
2024-05-09T15:23:22.486Z,57.60
2024-05-09T15:25:49.807Z,58.30
2024-05-09T15:28:20.030Z,58.40
2024-05-09T15:30:48.154Z,58.20
2024-05-09T15:33:21.231Z,58.60
2024-05-09T15:35:48.518Z,57.80
2024-05-09T15:38:18.957Z,57.80
2024-05-09T15:40:46.547Z,57.50
2024-05-09T15:43:16.844Z,57.50
2024-05-09T15:45:44.199Z,57.80
2024-05-09T15:48:14.452Z,57.20
2024-05-09T15:50:44.917Z,56.70
2024-05-09T15:53:19.457Z,56.70
2024-05-09T15:55:48.004Z,56.10
2024-05-09T15:58:19.143Z,56.00
2024-05-09T16:00:52.991Z,56.00
2024-05-09T16:03:25.068Z,56.60
2024-05-09T16:05:57.555Z,56.80
2024-05-09T16:08:27.996Z,57.60
2024-05-09T16:10:55.572Z,57.10
2024-05-09T16:13:25.885Z,57.00
2024-05-09T16:15:53.808Z,57.40
2024-05-09T16:18:24.282Z,57.20
2024-05-09T16:20:58.762Z,57.80
2024-05-09T16:23:31.704Z,58.30
2024-05-09T16:25:59.016Z,57.70
2024-05-09T16:28:28.938Z,57.70
2024-05-09T16:30:56.866Z,57.80
2024-05-09T16:33:26.907Z,57.80
2024-05-09T16:35:54.398Z,58.40
2024-05-09T16:38:24.447Z,58.60
2024-05-09T16:40:54.742Z,57.50
2024-05-09T16:43:24.681Z,57.30
2024-05-09T16:45:52.151Z,57.00
2024-05-09T16:48:23.652Z,57.10
2024-05-09T16:50:50.994Z,57.70
2024-05-09T16:53:23.316Z,57.60
2024-05-09T16:55:56.860Z,57.70
2024-05-09T16:58:27.491Z,58.20
2024-05-09T17:00:56.648Z,58.10
2024-05-09T17:03:27.342Z,58.20
2024-05-09T17:05:54.875Z,58.30
2024-05-09T17:08:25.046Z,58.90
2024-05-09T17:10:55.618Z,59.20
2024-05-09T17:13:26.029Z,59.00
2024-05-09T17:15:53.701Z,59.20
2024-05-09T17:18:24.207Z,59.30
2024-05-09T17:20:54.874Z,59.70
2024-05-09T17:23:22.210Z,60.30
2024-05-09T17:25:52.160Z,60.60
2024-05-09T17:28:24.396Z,60.60
2024-05-09T17:30:54.657Z,60.40
2024-05-09T17:33:25.072Z,60.70
2024-05-09T17:35:55.516Z,61.00
2024-05-09T17:38:23.694Z,61.60
2024-05-09T17:40:54.670Z,61.90
2024-05-09T17:43:25.139Z,62.00
2024-05-09T17:45:55.134Z,61.80
2024-05-09T17:48:28.225Z,62.10
2024-05-09T17:50:58.439Z,62.20
2024-05-09T17:53:28.307Z,62.70
2024-05-09T17:56:28.563Z,62.90
2024-05-09T17:58:59.315Z,63.10
2024-05-09T18:01:33.038Z,63.20
2024-05-09T18:04:04.135Z,63.80
2024-05-09T18:06:37.682Z,64.10
2024-05-09T18:09:05.659Z,64.60
2024-05-09T18:11:43.395Z,64.80
2024-05-09T18:14:15.793Z,64.80
2024-05-09T18:16:49.059Z,65.40
2024-05-09T18:19:22.208Z,65.60
2024-05-09T18:21:55.261Z,65.70
2024-05-09T18:24:22.469Z,66.20
2024-05-09T18:26:52.609Z,66.40
2024-05-09T18:29:25.744Z,66.70
2024-05-09T18:31:56.015Z,67.10
2024-05-09T18:34:26.364Z,67.20
2024-05-09T18:36:57.006Z,67.30
2024-05-09T18:39:24.217Z,67.50
2024-05-09T18:41:54.241Z,67.90
2024-05-09T18:44:29.244Z,68.10
2024-05-09T18:51:36.334Z,68.80
2024-05-09T18:54:03.922Z,68.70
2024-05-09T18:56:40.874Z,68.60
2024-05-09T18:59:09.420Z,70.00
2024-05-09T19:01:45.508Z,69.40
2024-05-09T19:04:14.722Z,69.60
2024-05-09T19:06:51.861Z,70.00
2024-05-09T19:09:19.180Z,70.30
2024-05-09T19:11:51.806Z,70.60
2024-05-09T19:14:19.355Z,71.20
2024-05-09T19:16:53.212Z,71.50
2024-05-09T19:19:20.917Z,72.10
2024-05-09T19:21:50.903Z,72.60
2024-05-09T19:24:23.751Z,72.90
2024-05-09T19:26:53.936Z,72.90
2024-05-09T19:29:23.485Z,73.20
2024-05-09T19:31:56.030Z,73.80
2024-05-09T19:34:30.890Z,76.10
2024-05-09T19:37:03.323Z,77.70
2024-05-09T19:39:31.046Z,77.80
2024-05-09T19:42:00.983Z,78.30
2024-05-09T19:44:33.959Z,79.90
2024-05-09T19:47:07.395Z,80.80
2024-05-09T19:49:34.953Z,82.30
2024-05-09T19:52:15.058Z,83.50
2024-05-09T19:54:44.876Z,84.30
2024-05-09T20:00:01.222Z,85.80
2024-05-09T20:02:42.990Z,87.10
2024-05-09T20:05:18.991Z,88.30
2024-05-09T20:07:46.206Z,88.50
2024-05-09T20:10:23.907Z,89.10
2024-05-09T20:12:56.722Z,90.10
2024-05-09T20:15:26.801Z,90.00
2024-05-09T20:17:58.840Z,90.10
2024-05-09T20:20:37.031Z,88.30
2024-05-09T20:23:10.105Z,87.30
2024-05-09T20:25:40.176Z,89.90
2024-05-09T20:28:08.849Z,90.00
2024-05-09T20:30:39.254Z,90.40
2024-05-09T20:33:10.059Z,90.50
2024-05-09T20:35:41.724Z,90.30
2024-05-09T20:38:08.938Z,90.00
2024-05-09T20:40:39.968Z,88.60
2024-05-09T20:43:08.697Z,88.60
2024-05-09T20:45:45.690Z,88.50
2024-05-09T20:48:15.761Z,88.70
2024-05-09T20:50:46.034Z,87.60
2024-05-09T20:53:14.754Z,86.30
2024-05-09T20:55:45.859Z,86.00
2024-05-09T20:58:13.782Z,85.20
2024-05-09T21:00:45.715Z,85.40
2024-05-09T21:03:17.551Z,85.70
2024-05-09T21:05:48.659Z,86.10
2024-05-09T21:08:16.248Z,86.50
2024-05-09T21:10:46.276Z,86.80
2024-05-09T21:13:13.499Z,86.90
2024-05-09T21:15:43.604Z,87.20
2024-05-09T21:18:10.908Z,86.90
2024-05-09T21:20:43.477Z,86.70
2024-05-09T21:23:10.755Z,87.30
2024-05-09T21:25:40.674Z,87.20
2024-05-09T21:28:08.092Z,88.60
2024-05-09T21:30:41.992Z,88.10
2024-05-09T21:33:12.933Z,87.80
2024-05-09T21:35:49.210Z,88.00
2024-05-09T21:38:18.162Z,88.30
2024-05-09T21:40:48.064Z,88.90
2024-05-09T21:43:15.515Z,89.50
2024-05-09T21:45:45.643Z,90.10
2024-05-09T21:48:13.757Z,90.50
2024-05-09T21:50:55.007Z,90.90
2024-05-09T21:53:22.294Z,91.20
2024-05-09T21:55:52.150Z,91.70
2024-05-09T21:58:19.496Z,92.20
2024-05-09T22:00:49.486Z,92.20
2024-05-09T22:03:16.986Z,93.10
2024-05-09T22:05:52.594Z,94.40
2024-05-09T22:08:19.900Z,94.90
2024-05-09T22:10:51.048Z,96.40
2024-05-09T22:13:20.396Z,97.80
2024-05-09T22:15:50.651Z,98.70
2024-05-09T22:18:18.216Z,99.20
2024-05-09T22:20:50.894Z,99.90
2024-05-09T22:23:18.240Z,99.90
2024-05-09T22:25:48.216Z,99.90
2024-05-09T22:28:17.273Z,99.90
2024-05-09T22:30:47.823Z,99.90
2024-05-09T22:33:15.671Z,99.90
2024-05-09T22:35:45.713Z,99.90
2024-05-09T22:38:15.931Z,99.90
2024-05-09T22:40:49.627Z,99.90
2024-05-09T22:43:23.455Z,99.90
2024-05-09T22:45:55.717Z,99.90
2024-05-09T22:48:24.266Z,99.90
2024-05-09T22:50:54.840Z,99.90
2024-05-09T22:53:25.832Z,99.90
2024-05-09T22:55:56.545Z,99.90
2024-05-09T22:58:24.323Z,99.90
2024-05-09T23:00:54.404Z,99.90
2024-05-09T23:03:22.844Z,99.90
2024-05-09T23:05:52.946Z,99.90
2024-05-09T23:08:20.167Z,99.90
2024-05-09T23:10:53.025Z,99.90
2024-05-09T23:13:21.059Z,99.90
2024-05-09T23:15:52.242Z,99.90
2024-05-09T23:18:19.843Z,99.90
2024-05-09T23:20:50.053Z,99.90
2024-05-09T23:23:17.682Z,99.90
2024-05-09T23:25:48.422Z,99.90
2024-05-09T23:28:18.953Z,99.90
2024-05-09T23:30:48.928Z,99.90
2024-05-09T23:33:16.753Z,99.90
2024-05-09T23:35:46.713Z,99.90
2024-05-09T23:38:14.450Z,99.90
2024-05-09T23:40:44.495Z,99.90
2024-05-09T23:43:12.701Z,99.90
2024-05-09T23:45:46.295Z,99.90
2024-05-09T23:48:13.724Z,99.90
2024-05-09T23:50:44.098Z,99.90
2024-05-09T23:53:11.569Z,99.90
2024-05-09T23:55:41.767Z,99.90
2024-05-09T23:58:09.457Z,99.90
